sensor_id;sensor_type;location;lat;lon;timestamp;pressure;altitude;pressure_sealevel;temperature;humidity
47166;BME280;32930;51.112;13.762;2023-09-18T00:19:27;99245.38;;;24.54;54.79
47166;BME280;32930;51.112;13.762;2023-09-18T00:21:52;99245.38;;;24.54;54.79
47166;BME280;32930;51.112;13.762;2023-09-18T00:24:19;99245.38;;;24.54;54.79
47166;BME280;32930;51.112;13.762;2023-09-18T00:26:44;99245.38;;;24.54;54.79
47166;BME280;32930;51.112;13.762;2023-09-18T00:56:02;99245.38;;;24.54;54.79
47166;BME280;32930;51.112;13.762;2023-09-18T00:58:28;99245.38;;;24.54;54.79
47166;BME280;32930;51.112;13.762;2023-09-18T01:00:54;99245.38;;;24.54;54.79
47166;BME280;32930;51.112;13.762;2023-09-18T01:03:19;99245.38;;;24.54;54.79
47166;BME280;32930;51.112;13.762;2023-09-18T01:05:46;99245.38;;;24.54;54.79
47166;BME280;32930;51.112;13.762;2023-09-18T01:08:11;99245.38;;;24.54;54.79
47166;BME280;32930;51.112;13.762;2023-09-18T01:10:39;99245.38;;;24.54;54.79
47166;BME280;32930;51.112;13.762;2023-09-18T01:15:47;99245.38;;;24.54;54.79
47166;BME280;32930;51.112;13.762;2023-09-18T01:35:17;99245.38;;;24.54;54.79
47166;BME280;32930;51.112;13.762;2023-09-18T01:37:42;99245.38;;;24.54;54.79
47166;BME280;32930;51.112;13.762;2023-09-18T01:40:09;99245.38;;;24.54;54.79
47166;BME280;32930;51.112;13.762;2023-09-18T02:00:18;99245.38;;;24.54;54.79
47166;BME280;32930;51.112;13.762;2023-09-18T02:34:39;99245.38;;;24.54;54.79
47166;BME280;32930;51.112;13.762;2023-09-18T02:37:04;99245.38;;;24.54;54.79
47166;BME280;32930;51.112;13.762;2023-09-18T04:03:26;99245.38;;;24.54;54.79
47166;BME280;32930;51.112;13.762;2023-09-18T04:05:52;99245.38;;;24.54;54.79
47166;BME280;32930;51.112;13.762;2023-09-18T04:08:17;99245.38;;;24.54;54.79
47166;BME280;32930;51.112;13.762;2023-09-18T04:10:42;99245.38;;;24.54;54.79
47166;BME280;32930;51.112;13.762;2023-09-18T04:13:08;99245.38;;;24.54;54.79
47166;BME280;32930;51.112;13.762;2023-09-18T04:15:34;99245.38;;;24.54;54.79
47166;BME280;32930;51.112;13.762;2023-09-18T04:18:03;99245.38;;;24.54;54.79
47166;BME280;32930;51.112;13.762;2023-09-18T04:46:58;99245.38;;;24.54;54.79
47166;BME280;32930;51.112;13.762;2023-09-18T04:49:23;99245.38;;;24.54;54.79
47166;BME280;32930;51.112;13.762;2023-09-18T06:53:21;98761.06;;;20.85;72.69
47166;BME280;32930;51.112;13.762;2023-09-18T06:55:46;98756.69;;;21.03;71.71
47166;BME280;32930;51.112;13.762;2023-09-18T06:58:11;98748.44;;;21.45;71.09
47166;BME280;32930;51.112;13.762;2023-09-18T07:00:37;98750.69;;;21.36;70.51
47166;BME280;32930;51.112;13.762;2023-09-18T07:03:02;98759.44;;;21.17;70.92
47166;BME280;32930;51.112;13.762;2023-09-18T07:05:27;98742.16;;;21.32;71.06
47166;BME280;32930;51.112;13.762;2023-09-18T07:21:59;98727.06;;;22.04;68.16
47166;BME280;32930;51.112;13.762;2023-09-18T07:26:55;98736.31;;;21.93;67.89
47166;BME280;32930;51.112;13.762;2023-09-18T07:29:22;98730.91;;;21.96;67.76
47166;BME280;32930;51.112;13.762;2023-09-18T07:31:53;98725.63;;;22.14;67.49
47166;BME280;32930;51.112;13.762;2023-09-18T07:34:18;98720.13;;;22.03;67.51
47166;BME280;32930;51.112;13.762;2023-09-18T07:36:43;98714.34;;;22.13;67.37
47166;BME280;32930;51.112;13.762;2023-09-18T07:39:09;98713.34;;;22.16;67.13
47166;BME280;32930;51.112;13.762;2023-09-18T07:41:38;98715.19;;;22.30;67.23
47166;BME280;32930;51.112;13.762;2023-09-18T07:44:07;98711.50;;;22.18;66.65
47166;BME280;32930;51.112;13.762;2023-09-18T07:46:32;98709.84;;;22.47;66.84
47166;BME280;32930;51.112;13.762;2023-09-18T07:48:59;98709.34;;;22.40;66.26
47166;BME280;32930;51.112;13.762;2023-09-18T08:50:48;98667.97;;;24.47;61.06
47166;BME280;32930;51.112;13.762;2023-09-18T08:53:13;98669.53;;;24.23;58.82
47166;BME280;32930;51.112;13.762;2023-09-18T09:59:41;98624.56;;;25.20;53.94
47166;BME280;32930;51.112;13.762;2023-09-18T10:02:10;98617.63;;;25.32;54.01
47166;BME280;32930;51.112;13.762;2023-09-18T10:04:37;98625.59;;;25.30;55.89
47166;BME280;32930;51.112;13.762;2023-09-18T10:07:05;98638.53;;;25.20;54.49
47166;BME280;32930;51.112;13.762;2023-09-18T10:09:32;98631.88;;;25.40;54.70
47166;BME280;32930;51.112;13.762;2023-09-18T10:11:59;98636.34;;;25.64;54.20
47166;BME280;32930;51.112;13.762;2023-09-18T10:14:32;98644.50;;;25.48;54.05
47166;BME280;32930;51.112;13.762;2023-09-18T10:17:04;98645.78;;;25.30;53.45
47166;BME280;32930;51.112;13.762;2023-09-18T10:19:56;98643.47;;;25.12;53.37
47166;BME280;32930;51.112;13.762;2023-09-18T10:22:32;98630.88;;;25.17;53.98
47166;BME280;32930;51.112;13.762;2023-09-18T10:25:21;98637.78;;;25.18;52.96
47166;BME280;32930;51.112;13.762;2023-09-18T10:27:47;98631.78;;;25.42;53.21
47166;BME280;32930;51.112;13.762;2023-09-18T10:30:18;98625.66;;;25.54;52.54
47166;BME280;32930;51.112;13.762;2023-09-18T10:32:45;98621.16;;;25.93;51.52
47166;BME280;32930;51.112;13.762;2023-09-18T10:35:11;98615.53;;;26.22;52.52
47166;BME280;32930;51.112;13.762;2023-09-18T10:37:37;98611.25;;;26.32;51.70
47166;BME280;32930;51.112;13.762;2023-09-18T10:40:03;98611.19;;;26.45;50.78
47166;BME280;32930;51.112;13.762;2023-09-18T10:42:33;98606.03;;;26.78;50.18
47166;BME280;32930;51.112;13.762;2023-09-18T10:44:59;98610.94;;;26.83;49.36
47166;BME280;32930;51.112;13.762;2023-09-18T10:47:25;98608.88;;;26.75;50.54
47166;BME280;32930;51.112;13.762;2023-09-18T10:49:50;98610.56;;;26.65;49.73
47166;BME280;32930;51.112;13.762;2023-09-18T10:52:16;98609.72;;;26.29;50.42
47166;BME280;32930;51.112;13.762;2023-09-18T10:54:41;98613.34;;;26.16;50.13
47166;BME280;32930;51.112;13.762;2023-09-18T10:57:06;98614.69;;;25.97;50.47
47166;BME280;32930;51.112;13.762;2023-09-18T10:59:32;98602.22;;;25.88;51.67
47166;BME280;32930;51.112;13.762;2023-09-18T11:02:02;98606.06;;;25.71;51.10
47166;BME280;32930;51.112;13.762;2023-09-18T11:04:29;98608.47;;;25.74;51.67
47166;BME280;32930;51.112;13.762;2023-09-18T11:09:22;98611.00;;;25.63;52.21
47166;BME280;32930;51.112;13.762;2023-09-18T11:14:47;98609.47;;;25.60;53.23
47166;BME280;32930;51.112;13.762;2023-09-18T11:17:30;98610.84;;;25.53;53.42
47166;BME280;32930;51.112;13.762;2023-09-18T11:22:29;98610.88;;;25.40;53.03
47166;BME280;32930;51.112;13.762;2023-09-18T11:24:54;98614.78;;;25.35;53.64
47166;BME280;32930;51.112;13.762;2023-09-18T11:27:51;98620.25;;;25.32;54.30
47166;BME280;32930;51.112;13.762;2023-09-18T11:30:19;98607.16;;;25.19;54.82
47166;BME280;32930;51.112;13.762;2023-09-18T11:32:45;98610.63;;;25.19;55.18
47166;BME280;32930;51.112;13.762;2023-09-18T11:35:10;98610.59;;;25.32;55.32
47166;BME280;32930;51.112;13.762;2023-09-18T11:37:37;98608.19;;;25.29;54.74
47166;BME280;32930;51.112;13.762;2023-09-18T11:40:03;98610.47;;;25.34;55.12
47166;BME280;32930;51.112;13.762;2023-09-18T11:42:29;98607.41;;;25.40;55.24
47166;BME280;32930;51.112;13.762;2023-09-18T11:44:55;98609.50;;;25.48;55.42
47166;BME280;32930;51.112;13.762;2023-09-18T11:47:24;98615.78;;;25.58;55.08
47166;BME280;32930;51.112;13.762;2023-09-18T11:52:23;98621.31;;;26.03;53.33
47166;BME280;32930;51.112;13.762;2023-09-18T11:54:48;98620.81;;;25.98;54.02
47166;BME280;32930;51.112;13.762;2023-09-18T11:57:14;98615.50;;;26.10;53.18
47166;BME280;32930;51.112;13.762;2023-09-18T11:59:40;98605.16;;;26.20;54.05
47166;BME280;32930;51.112;13.762;2023-09-18T12:02:07;98606.84;;;26.32;53.05
47166;BME280;32930;51.112;13.762;2023-09-18T12:04:33;98613.09;;;26.43;53.61
47166;BME280;32930;51.112;13.762;2023-09-18T12:06:59;98619.03;;;26.33;53.65
47166;BME280;32930;51.112;13.762;2023-09-18T12:09:31;98617.16;;;26.11;53.98
47166;BME280;32930;51.112;13.762;2023-09-18T12:11:58;98610.72;;;26.16;54.46
47166;BME280;32930;51.112;13.762;2023-09-18T12:14:23;98607.31;;;26.26;54.44
47166;BME280;32930;51.112;13.762;2023-09-18T12:16:49;98600.13;;;26.28;53.35
47166;BME280;32930;51.112;13.762;2023-09-18T12:19:18;98595.16;;;26.37;53.43
47166;BME280;32930;51.112;13.762;2023-09-18T12:21:47;98599.44;;;26.26;52.91
47166;BME280;32930;51.112;13.762;2023-09-18T12:24:13;98599.28;;;26.17;53.17
47166;BME280;32930;51.112;13.762;2023-09-18T13:36:48;98597.44;;;26.06;54.43
47166;BME280;32930;51.112;13.762;2023-09-18T13:39:34;98586.91;;;26.06;54.12
47166;BME280;32930;51.112;13.762;2023-09-18T13:45:21;98598.09;;;25.97;53.73
47166;BME280;32930;51.112;13.762;2023-09-18T13:48:10;98595.38;;;25.98;53.75
47166;BME280;32930;51.112;13.762;2023-09-18T13:50:42;98594.41;;;25.99;54.10
47166;BME280;32930;51.112;13.762;2023-09-18T13:53:30;98599.78;;;25.98;54.23
47166;BME280;32930;51.112;13.762;2023-09-18T13:55:58;98597.84;;;25.88;54.55
47166;BME280;32930;51.112;13.762;2023-09-18T13:58:23;98595.09;;;25.90;54.63
47166;BME280;32930;51.112;13.762;2023-09-18T14:00:48;98600.63;;;25.98;54.89
47166;BME280;32930;51.112;13.762;2023-09-18T14:03:14;98595.81;;;25.92;54.42
47166;BME280;32930;51.112;13.762;2023-09-18T14:05:42;98597.50;;;25.93;55.24
47166;BME280;32930;51.112;13.762;2023-09-18T14:08:07;98603.41;;;25.84;54.56
47166;BME280;32930;51.112;13.762;2023-09-18T14:10:35;98596.16;;;25.87;54.75
47166;BME280;32930;51.112;13.762;2023-09-18T14:13:03;98600.47;;;25.88;55.69
47166;BME280;32930;51.112;13.762;2023-09-18T14:15:29;98598.91;;;25.86;58.22
47166;BME280;32930;51.112;13.762;2023-09-18T14:17:54;98604.47;;;25.81;58.34
47166;BME280;32930;51.112;13.762;2023-09-18T14:20:19;98599.84;;;25.72;58.35
47166;BME280;32930;51.112;13.762;2023-09-18T14:22:47;98602.22;;;25.64;58.35
47166;BME280;32930;51.112;13.762;2023-09-18T14:25:14;98608.16;;;25.66;57.66
47166;BME280;32930;51.112;13.762;2023-09-18T14:27:40;98610.19;;;25.62;57.24
47166;BME280;32930;51.112;13.762;2023-09-18T14:30:07;98618.59;;;25.67;57.09
47166;BME280;32930;51.112;13.762;2023-09-18T14:32:33;98615.00;;;25.69;56.99
47166;BME280;32930;51.112;13.762;2023-09-18T14:34:58;98621.31;;;25.66;57.95
47166;BME280;32930;51.112;13.762;2023-09-18T14:37:26;98614.50;;;25.63;58.11
47166;BME280;32930;51.112;13.762;2023-09-18T14:39:52;98625.25;;;25.60;57.99
47166;BME280;32930;51.112;13.762;2023-09-18T14:42:17;98622.69;;;25.59;57.61
47166;BME280;32930;51.112;13.762;2023-09-18T14:44:42;98621.25;;;25.55;58.01
47166;BME280;32930;51.112;13.762;2023-09-18T14:47:10;98617.19;;;25.51;59.50
47166;BME280;32930;51.112;13.762;2023-09-18T14:49:35;98624.63;;;25.44;59.51
47166;BME280;32930;51.112;13.762;2023-09-18T14:52:02;98629.03;;;25.43;59.11
47166;BME280;32930;51.112;13.762;2023-09-18T18:25:38;98667.06;;;21.86;99.63
47166;BME280;32930;51.112;13.762;2023-09-18T18:28:05;98671.28;;;21.73;93.18
47166;BME280;32930;51.112;13.762;2023-09-18T18:30:32;98681.63;;;21.74;92.62
47166;BME280;32930;51.112;13.762;2023-09-18T18:32:58;98684.84;;;21.80;96.53
47166;BME280;32930;51.112;13.762;2023-09-18T18:35:23;98691.25;;;21.74;94.17
47166;BME280;32930;51.112;13.762;2023-09-18T18:37:48;98687.78;;;21.73;98.23
47166;BME280;32930;51.112;13.762;2023-09-18T18:40:15;98687.44;;;21.64;96.66
47166;BME280;32930;51.112;13.762;2023-09-18T18:42:41;98688.91;;;21.69;98.68
47166;BME280;32930;51.112;13.762;2023-09-18T18:45:06;98681.13;;;21.68;97.93
47166;BME280;32930;51.112;13.762;2023-09-18T18:47:32;98677.50;;;21.70;96.29
47166;BME280;32930;51.112;13.762;2023-09-18T18:49:57;98682.91;;;21.67;94.43
47166;BME280;32930;51.112;13.762;2023-09-18T18:52:23;98692.50;;;21.51;95.42
47166;BME280;32930;51.112;13.762;2023-09-18T18:54:48;98693.00;;;21.58;97.33
47166;BME280;32930;51.112;13.762;2023-09-18T18:57:13;98694.84;;;21.56;100.00
47166;BME280;32930;51.112;13.762;2023-09-18T18:59:39;98684.22;;;21.59;100.00
47166;BME280;32930;51.112;13.762;2023-09-18T19:02:07;98685.22;;;21.56;99.55
47166;BME280;32930;51.112;13.762;2023-09-18T19:04:35;98683.88;;;21.49;100.00
47166;BME280;32930;51.112;13.762;2023-09-18T19:07:01;98692.13;;;21.41;100.00
47166;BME280;32930;51.112;13.762;2023-09-18T19:09:28;98702.03;;;21.35;100.00
47166;BME280;32930;51.112;13.762;2023-09-18T19:11:54;98687.91;;;21.21;100.00
47166;BME280;32930;51.112;13.762;2023-09-18T19:14:21;98689.00;;;21.17;100.00
47166;BME280;32930;51.112;13.762;2023-09-18T19:16:47;98684.16;;;21.27;100.00
47166;BME280;32930;51.112;13.762;2023-09-18T19:19:12;98677.41;;;21.23;100.00
47166;BME280;32930;51.112;13.762;2023-09-18T19:21:37;98661.75;;;21.23;100.00
47166;BME280;32930;51.112;13.762;2023-09-18T19:24:04;98640.75;;;21.09;100.00
47166;BME280;32930;51.112;13.762;2023-09-18T19:26:30;98626.75;;;21.27;100.00
47166;BME280;32930;51.112;13.762;2023-09-18T19:28:56;98635.91;;;20.85;100.00
47166;BME280;32930;51.112;13.762;2023-09-18T19:31:21;98638.47;;;21.02;100.00
47166;BME280;32930;51.112;13.762;2023-09-18T19:33:47;98633.88;;;21.08;99.82
47166;BME280;32930;51.112;13.762;2023-09-18T19:36:12;98638.16;;;21.09;99.08
47166;BME280;32930;51.112;13.762;2023-09-18T19:38:38;98639.91;;;21.08;100.00
47166;BME280;32930;51.112;13.762;2023-09-18T19:41:03;98633.38;;;21.17;100.00
47166;BME280;32930;51.112;13.762;2023-09-18T19:43:29;98636.00;;;21.17;100.00
47166;BME280;32930;51.112;13.762;2023-09-18T19:45:54;98635.00;;;21.19;100.00
47166;BME280;32930;51.112;13.762;2023-09-18T19:48:20;98641.66;;;21.25;100.00
47166;BME280;32930;51.112;13.762;2023-09-18T19:50:46;98631.25;;;21.08;100.00
47166;BME280;32930;51.112;13.762;2023-09-18T19:53:18;98632.03;;;21.10;100.00
47166;BME280;32930;51.112;13.762;2023-09-18T19:55:44;98613.28;;;21.19;100.00
47166;BME280;32930;51.112;13.762;2023-09-18T19:58:09;98644.75;;;21.16;100.00
47166;BME280;32930;51.112;13.762;2023-09-18T20:00:34;98630.78;;;21.17;100.00
47166;BME280;32930;51.112;13.762;2023-09-18T20:03:01;98636.31;;;21.11;100.00
47166;BME280;32930;51.112;13.762;2023-09-18T20:05:27;98635.75;;;21.21;100.00
47166;BME280;32930;51.112;13.762;2023-09-18T20:07:53;98627.50;;;21.13;100.00
47166;BME280;32930;51.112;13.762;2023-09-18T20:10:18;98621.84;;;21.21;100.00
47166;BME280;32930;51.112;13.762;2023-09-18T20:12:44;98619.72;;;21.12;100.00
47166;BME280;32930;51.112;13.762;2023-09-18T20:15:12;98621.34;;;21.14;100.00
47166;BME280;32930;51.112;13.762;2023-09-18T20:17:37;98616.97;;;21.15;100.00
47166;BME280;32930;51.112;13.762;2023-09-18T20:20:03;98610.81;;;21.00;100.00
47166;BME280;32930;51.112;13.762;2023-09-18T20:22:28;98607.94;;;21.04;100.00
47166;BME280;32930;51.112;13.762;2023-09-18T20:24:55;98607.03;;;21.05;100.00
47166;BME280;32930;51.112;13.762;2023-09-18T20:27:26;98603.50;;;21.06;100.00
47166;BME280;32930;51.112;13.762;2023-09-18T20:29:52;98612.56;;;20.99;100.00
47166;BME280;32930;51.112;13.762;2023-09-18T20:32:17;98603.69;;;20.86;100.00
47166;BME280;32930;51.112;13.762;2023-09-18T20:34:43;98596.72;;;20.87;100.00
47166;BME280;32930;51.112;13.762;2023-09-18T20:37:08;98591.81;;;20.80;99.78
47166;BME280;32930;51.112;13.762;2023-09-18T20:39:34;98589.97;;;20.82;100.00
47166;BME280;32930;51.112;13.762;2023-09-18T20:41:59;98597.47;;;20.89;99.12
47166;BME280;32930;51.112;13.762;2023-09-18T20:44:24;98587.22;;;20.86;100.00
47166;BME280;32930;51.112;13.762;2023-09-18T20:46:50;98577.59;;;20.70;100.00
47166;BME280;32930;51.112;13.762;2023-09-18T20:49:15;98588.25;;;20.66;98.96
47166;BME280;32930;51.112;13.762;2023-09-18T20:51:41;98591.44;;;20.71;97.93
47166;BME280;32930;51.112;13.762;2023-09-18T20:54:06;98589.88;;;20.68;99.36
47166;BME280;32930;51.112;13.762;2023-09-18T20:56:31;98590.78;;;20.67;100.00
47166;BME280;32930;51.112;13.762;2023-09-18T22:29:49;98614.06;;;19.82;97.62
47166;BME280;32930;51.112;13.762;2023-09-18T22:32:16;98612.16;;;19.85;97.65
47166;BME280;32930;51.112;13.762;2023-09-18T22:34:44;98628.59;;;19.86;96.25
47166;BME280;32930;51.112;13.762;2023-09-18T22:37:11;98620.19;;;19.81;96.10
47166;BME280;32930;51.112;13.762;2023-09-18T22:55:20;98614.19;;;19.60;98.05
47166;BME280;32930;51.112;13.762;2023-09-18T22:57:59;98614.03;;;19.64;98.17
47166;BME280;32930;51.112;13.762;2023-09-18T23:00:25;98606.13;;;19.66;97.95
47166;BME280;32930;51.112;13.762;2023-09-18T23:02:54;98625.31;;;19.63;96.64
47166;BME280;32930;51.112;13.762;2023-09-18T23:05:22;98627.16;;;19.61;97.22
47166;BME280;32930;51.112;13.762;2023-09-18T23:07:59;98620.19;;;19.43;97.21
47166;BME280;32930;51.112;13.762;2023-09-18T23:10:32;98614.28;;;19.58;98.31
47166;BME280;32930;51.112;13.762;2023-09-18T23:12:59;98610.41;;;19.48;98.23
47166;BME280;32930;51.112;13.762;2023-09-18T23:15:31;98617.50;;;19.44;96.38
47166;BME280;32930;51.112;13.762;2023-09-18T23:18:02;98617.16;;;19.52;96.53
